sensor_id;sensor_type;location;lat;lon;timestamp;temperature;humidity
8709;DHT22;4391;48.678;9.280;2023-06-10T00:03:45;15.40;1.00
8709;DHT22;4391;48.678;9.280;2023-06-10T00:06:12;15.30;1.00
8709;DHT22;4391;48.678;9.280;2023-06-10T00:08:40;15.30;1.00
8709;DHT22;4391;48.678;9.280;2023-06-10T00:11:07;15.30;86.00
8709;DHT22;4391;48.678;9.280;2023-06-10T00:13:34;15.40;1.00
8709;DHT22;4391;48.678;9.280;2023-06-10T00:16:01;15.40;99.90
8709;DHT22;4391;48.678;9.280;2023-06-10T00:18:28;15.60;99.90
8709;DHT22;4391;48.678;9.280;2023-06-10T00:20:56;15.70;1.00
8709;DHT22;4391;48.678;9.280;2023-06-10T00:23:29;15.70;99.90
8709;DHT22;4391;48.678;9.280;2023-06-10T00:25:59;15.60;1.00
8709;DHT22;4391;48.678;9.280;2023-06-10T00:28:26;15.60;99.90
8709;DHT22;4391;48.678;9.280;2023-06-10T00:30:53;15.50;1.00
8709;DHT22;4391;48.678;9.280;2023-06-10T00:33:20;15.40;1.00
8709;DHT22;4391;48.678;9.280;2023-06-10T00:35:46;15.30;99.90
8709;DHT22;4391;48.678;9.280;2023-06-10T00:38:14;15.30;99.90
8709;DHT22;4391;48.678;9.280;2023-06-10T00:40:41;15.30;1.00
8709;DHT22;4391;48.678;9.280;2023-06-10T00:43:09;15.30;99.90
8709;DHT22;4391;48.678;9.280;2023-06-10T00:45:36;15.20;99.90
8709;DHT22;4391;48.678;9.280;2023-06-10T00:48:03;15.20;99.90
8709;DHT22;4391;48.678;9.280;2023-06-10T00:50:31;15.20;99.90
8709;DHT22;4391;48.678;9.280;2023-06-10T00:53:01;15.20;99.90
8709;DHT22;4391;48.678;9.280;2023-06-10T00:55:28;15.10;1.00
8709;DHT22;4391;48.678;9.280;2023-06-10T00:57:55;15.00;99.90
8709;DHT22;4391;48.678;9.280;2023-06-10T01:00:23;15.00;99.90
8709;DHT22;4391;48.678;9.280;2023-06-10T01:02:50;14.90;99.90
8709;DHT22;4391;48.678;9.280;2023-06-10T01:05:18;14.80;99.90
8709;DHT22;4391;48.678;9.280;2023-06-10T01:07:52;14.70;99.90
8709;DHT22;4391;48.678;9.280;2023-06-10T01:10:27;14.70;99.90
8709;DHT22;4391;48.678;9.280;2023-06-10T01:13:01;14.70;99.90
8709;DHT22;4391;48.678;9.280;2023-06-10T01:15:31;14.60;99.90
8709;DHT22;4391;48.678;9.280;2023-06-10T01:17:59;14.60;1.00
8709;DHT22;4391;48.678;9.280;2023-06-10T01:20:27;14.60;1.00
8709;DHT22;4391;48.678;9.280;2023-06-10T01:22:56;14.50;1.00
8709;DHT22;4391;48.678;9.280;2023-06-10T01:25:24;14.50;1.00
8709;DHT22;4391;48.678;9.280;2023-06-10T01:28:07;14.40;1.00
8709;DHT22;4391;48.678;9.280;2023-06-10T01:30:45;14.40;1.00
8709;DHT22;4391;48.678;9.280;2023-06-10T01:33:15;14.50;1.00
8709;DHT22;4391;48.678;9.280;2023-06-10T01:35:44;14.50;1.00
8709;DHT22;4391;48.678;9.280;2023-06-10T01:38:14;14.40;1.00
8709;DHT22;4391;48.678;9.280;2023-06-10T01:40:42;14.50;1.00
8709;DHT22;4391;48.678;9.280;2023-06-10T01:43:09;14.50;1.00
8709;DHT22;4391;48.678;9.280;2023-06-10T01:45:36;14.40;1.00
8709;DHT22;4391;48.678;9.280;2023-06-10T01:48:03;14.40;1.00
8709;DHT22;4391;48.678;9.280;2023-06-10T01:50:30;14.40;1.00
8709;DHT22;4391;48.678;9.280;2023-06-10T01:52:58;14.30;1.00
8709;DHT22;4391;48.678;9.280;2023-06-10T01:55:26;14.30;1.00
8709;DHT22;4391;48.678;9.280;2023-06-10T01:57:53;14.30;1.00
8709;DHT22;4391;48.678;9.280;2023-06-10T02:00:20;14.20;1.00
8709;DHT22;4391;48.678;9.280;2023-06-10T02:02:47;14.20;1.00
8709;DHT22;4391;48.678;9.280;2023-06-10T02:05:13;14.20;1.00
8709;DHT22;4391;48.678;9.280;2023-06-10T02:07:40;14.10;1.00
8709;DHT22;4391;48.678;9.280;2023-06-10T02:10:08;14.10;1.00
8709;DHT22;4391;48.678;9.280;2023-06-10T02:12:36;14.10;1.00
8709;DHT22;4391;48.678;9.280;2023-06-10T02:15:03;14.10;1.00
8709;DHT22;4391;48.678;9.280;2023-06-10T02:17:30;14.20;1.00
8709;DHT22;4391;48.678;9.280;2023-06-10T02:19:58;14.20;1.00
8709;DHT22;4391;48.678;9.280;2023-06-10T02:22:25;14.10;1.00
8709;DHT22;4391;48.678;9.280;2023-06-10T02:24:52;14.00;1.00
8709;DHT22;4391;48.678;9.280;2023-06-10T02:27:19;13.90;1.00
8709;DHT22;4391;48.678;9.280;2023-06-10T02:29:48;13.90;1.00
8709;DHT22;4391;48.678;9.280;2023-06-10T02:32:15;14.00;1.00
8709;DHT22;4391;48.678;9.280;2023-06-10T02:34:42;14.00;1.00
8709;DHT22;4391;48.678;9.280;2023-06-10T02:37:09;14.00;1.00
8709;DHT22;4391;48.678;9.280;2023-06-10T02:39:36;13.90;1.00
8709;DHT22;4391;48.678;9.280;2023-06-10T02:42:03;14.00;1.00
8709;DHT22;4391;48.678;9.280;2023-06-10T02:44:31;13.90;1.00
8709;DHT22;4391;48.678;9.280;2023-06-10T02:46:59;13.90;1.00
8709;DHT22;4391;48.678;9.280;2023-06-10T02:49:26;13.90;1.00
8709;DHT22;4391;48.678;9.280;2023-06-10T02:51:53;13.90;1.00
8709;DHT22;4391;48.678;9.280;2023-06-10T02:54:20;13.90;1.00
8709;DHT22;4391;48.678;9.280;2023-06-10T02:56:47;13.80;1.00
8709;DHT22;4391;48.678;9.280;2023-06-10T02:59:14;13.80;1.00
8709;DHT22;4391;48.678;9.280;2023-06-10T03:01:41;13.70;1.00
8709;DHT22;4391;48.678;9.280;2023-06-10T03:04:10;13.80;1.00
8709;DHT22;4391;48.678;9.280;2023-06-10T03:06:39;13.70;1.00
8709;DHT22;4391;48.678;9.280;2023-06-10T03:09:06;13.70;1.00
8709;DHT22;4391;48.678;9.280;2023-06-10T03:11:34;13.60;1.00
8709;DHT22;4391;48.678;9.280;2023-06-10T03:14:01;13.60;1.00
8709;DHT22;4391;48.678;9.280;2023-06-10T03:16:28;13.60;1.00
8709;DHT22;4391;48.678;9.280;2023-06-10T03:18:55;13.60;7.40
8709;DHT22;4391;48.678;9.280;2023-06-10T03:21:24;13.60;4.30
8709;DHT22;4391;48.678;9.280;2023-06-10T03:23:51;13.70;3.10
8709;DHT22;4391;48.678;9.280;2023-06-10T03:26:18;13.70;1.00
8709;DHT22;4391;48.678;9.280;2023-06-10T03:28:47;13.70;1.00
8709;DHT22;4391;48.678;9.280;2023-06-10T03:31:14;13.70;1.00
8709;DHT22;4391;48.678;9.280;2023-06-10T03:33:42;13.70;1.00
8709;DHT22;4391;48.678;9.280;2023-06-10T03:36:09;13.60;1.90
8709;DHT22;4391;48.678;9.280;2023-06-10T03:38:37;13.60;3.30
8709;DHT22;4391;48.678;9.280;2023-06-10T03:41:04;13.50;8.60
8709;DHT22;4391;48.678;9.280;2023-06-10T03:43:31;13.50;14.20
8709;DHT22;4391;48.678;9.280;2023-06-10T03:45:57;13.50;15.20
8709;DHT22;4391;48.678;9.280;2023-06-10T03:48:24;13.50;10.40
8709;DHT22;4391;48.678;9.280;2023-06-10T03:50:51;13.50;13.70
8709;DHT22;4391;48.678;9.280;2023-06-10T03:53:18;13.50;12.80
8709;DHT22;4391;48.678;9.280;2023-06-10T03:55:46;13.60;15.40
8709;DHT22;4391;48.678;9.280;2023-06-10T03:58:13;13.60;15.90
8709;DHT22;4391;48.678;9.280;2023-06-10T04:00:40;13.50;14.00
8709;DHT22;4391;48.678;9.280;2023-06-10T04:03:07;13.60;9.40
8709;DHT22;4391;48.678;9.280;2023-06-10T04:05:40;13.60;11.40
8709;DHT22;4391;48.678;9.280;2023-06-10T04:08:06;13.70;11.60
8709;DHT22;4391;48.678;9.280;2023-06-10T04:10:33;13.80;9.50
8709;DHT22;4391;48.678;9.280;2023-06-10T04:13:01;13.80;5.90
8709;DHT22;4391;48.678;9.280;2023-06-10T04:15:29;13.80;1.00
8709;DHT22;4391;48.678;9.280;2023-06-10T04:17:58;13.90;4.10
8709;DHT22;4391;48.678;9.280;2023-06-10T04:20:25;14.00;1.00
8709;DHT22;4391;48.678;9.280;2023-06-10T04:22:52;14.00;1.00
8709;DHT22;4391;48.678;9.280;2023-06-10T04:25:19;14.10;1.00
8709;DHT22;4391;48.678;9.280;2023-06-10T04:27:45;14.20;1.00
8709;DHT22;4391;48.678;9.280;2023-06-10T04:30:14;14.30;1.00
8709;DHT22;4391;48.678;9.280;2023-06-10T04:32:41;14.40;1.00
8709;DHT22;4391;48.678;9.280;2023-06-10T04:35:11;14.50;1.00
8709;DHT22;4391;48.678;9.280;2023-06-10T04:37:38;14.60;1.00
8709;DHT22;4391;48.678;9.280;2023-06-10T04:40:06;14.70;1.00
8709;DHT22;4391;48.678;9.280;2023-06-10T04:42:33;14.80;1.00
8709;DHT22;4391;48.678;9.280;2023-06-10T04:45:00;14.90;1.00
8709;DHT22;4391;48.678;9.280;2023-06-10T04:47:28;15.00;1.00
8709;DHT22;4391;48.678;9.280;2023-06-10T04:49:58;15.10;1.00
8709;DHT22;4391;48.678;9.280;2023-06-10T04:52:25;15.20;1.00
8709;DHT22;4391;48.678;9.280;2023-06-10T04:54:52;15.30;1.00
8709;DHT22;4391;48.678;9.280;2023-06-10T04:57:19;15.40;1.00
8709;DHT22;4391;48.678;9.280;2023-06-10T04:59:46;15.50;1.00
8709;DHT22;4391;48.678;9.280;2023-06-10T05:02:13;15.70;99.90
8709;DHT22;4391;48.678;9.280;2023-06-10T05:04:41;15.80;99.90
8709;DHT22;4391;48.678;9.280;2023-06-10T05:07:08;15.90;99.90
8709;DHT22;4391;48.678;9.280;2023-06-10T05:09:35;16.00;99.90
8709;DHT22;4391;48.678;9.280;2023-06-10T05:12:03;16.10;67.30
8709;DHT22;4391;48.678;9.280;2023-06-10T05:14:29;16.30;1.00
8709;DHT22;4391;48.678;9.280;2023-06-10T05:16:56;16.40;1.00
8709;DHT22;4391;48.678;9.280;2023-06-10T05:19:23;16.50;99.90
8709;DHT22;4391;48.678;9.280;2023-06-10T05:21:52;16.60;1.00
8709;DHT22;4391;48.678;9.280;2023-06-10T05:24:18;16.80;99.90
8709;DHT22;4391;48.678;9.280;2023-06-10T05:26:46;16.80;99.90
8709;DHT22;4391;48.678;9.280;2023-06-10T05:29:14;17.00;99.90
8709;DHT22;4391;48.678;9.280;2023-06-10T05:31:41;17.20;1.00
8709;DHT22;4391;48.678;9.280;2023-06-10T05:34:08;17.30;99.90
8709;DHT22;4391;48.678;9.280;2023-06-10T05:36:35;17.50;99.90
8709;DHT22;4391;48.678;9.280;2023-06-10T05:39:03;17.60;68.00
8709;DHT22;4391;48.678;9.280;2023-06-10T05:41:30;17.70;99.90
8709;DHT22;4391;48.678;9.280;2023-06-10T05:43:57;17.80;99.90
8709;DHT22;4391;48.678;9.280;2023-06-10T05:46:24;17.90;27.50
8709;DHT22;4391;48.678;9.280;2023-06-10T05:48:51;18.00;99.90
8709;DHT22;4391;48.678;9.280;2023-06-10T05:51:18;18.10;99.90
8709;DHT22;4391;48.678;9.280;2023-06-10T05:53:44;18.20;1.00
8709;DHT22;4391;48.678;9.280;2023-06-10T05:56:14;18.30;1.00
8709;DHT22;4391;48.678;9.280;2023-06-10T05:58:41;18.50;1.00
8709;DHT22;4391;48.678;9.280;2023-06-10T06:03:36;18.70;1.00
8709;DHT22;4391;48.678;9.280;2023-06-10T06:06:03;18.80;1.00
8709;DHT22;4391;48.678;9.280;2023-06-10T06:08:30;18.90;99.90
8709;DHT22;4391;48.678;9.280;2023-06-10T06:10:57;19.10;1.00
8709;DHT22;4391;48.678;9.280;2023-06-10T06:13:25;19.10;99.90
8709;DHT22;4391;48.678;9.280;2023-06-10T06:15:52;19.30;99.90
8709;DHT22;4391;48.678;9.280;2023-06-10T06:18:19;19.40;99.90
8709;DHT22;4391;48.678;9.280;2023-06-10T06:20:46;19.50;99.90
8709;DHT22;4391;48.678;9.280;2023-06-10T06:23:13;19.70;99.90
8709;DHT22;4391;48.678;9.280;2023-06-10T06:25:40;19.90;1.00
8709;DHT22;4391;48.678;9.280;2023-06-10T06:28:07;19.80;1.00
8709;DHT22;4391;48.678;9.280;2023-06-10T06:30:35;19.90;1.00
8709;DHT22;4391;48.678;9.280;2023-06-10T06:33:03;20.00;1.00
8709;DHT22;4391;48.678;9.280;2023-06-10T06:35:30;20.10;1.00
8709;DHT22;4391;48.678;9.280;2023-06-10T06:37:58;20.30;1.00
8709;DHT22;4391;48.678;9.280;2023-06-10T06:40:25;20.40;1.00
8709;DHT22;4391;48.678;9.280;2023-06-10T06:42:52;20.40;1.00
8709;DHT22;4391;48.678;9.280;2023-06-10T06:45:19;20.50;1.00
8709;DHT22;4391;48.678;9.280;2023-06-10T06:47:47;20.60;1.00
8709;DHT22;4391;48.678;9.280;2023-06-10T06:50:14;20.70;1.00
8709;DHT22;4391;48.678;9.280;2023-06-10T06:52:42;20.80;1.00
8709;DHT22;4391;48.678;9.280;2023-06-10T06:55:08;20.90;1.00
8709;DHT22;4391;48.678;9.280;2023-06-10T06:57:35;21.00;1.00
8709;DHT22;4391;48.678;9.280;2023-06-10T07:00:04;21.10;1.00
8709;DHT22;4391;48.678;9.280;2023-06-10T07:02:31;21.20;1.00
8709;DHT22;4391;48.678;9.280;2023-06-10T07:05:00;21.30;1.00
8709;DHT22;4391;48.678;9.280;2023-06-10T07:07:26;21.40;1.00
8709;DHT22;4391;48.678;9.280;2023-06-10T07:09:53;21.50;99.90
8709;DHT22;4391;48.678;9.280;2023-06-10T07:12:20;21.70;99.90
8709;DHT22;4391;48.678;9.280;2023-06-10T07:14:49;21.80;99.90
8709;DHT22;4391;48.678;9.280;2023-06-10T07:17:16;21.90;99.90
8709;DHT22;4391;48.678;9.280;2023-06-10T07:19:43;22.00;99.90
8709;DHT22;4391;48.678;9.280;2023-06-10T07:22:11;22.20;99.90
8709;DHT22;4391;48.678;9.280;2023-06-10T07:24:38;22.40;99.90
8709;DHT22;4391;48.678;9.280;2023-06-10T07:27:06;22.70;99.90
8709;DHT22;4391;48.678;9.280;2023-06-10T07:29:33;22.90;99.90
8709;DHT22;4391;48.678;9.280;2023-06-10T07:32:01;23.10;99.90
8709;DHT22;4391;48.678;9.280;2023-06-10T07:34:28;23.20;99.90
8709;DHT22;4391;48.678;9.280;2023-06-10T07:36:55;23.20;99.90
8709;DHT22;4391;48.678;9.280;2023-06-10T07:39:23;23.30;99.90
8709;DHT22;4391;48.678;9.280;2023-06-10T07:41:50;23.40;99.90
8709;DHT22;4391;48.678;9.280;2023-06-10T07:44:19;23.40;99.90
8709;DHT22;4391;48.678;9.280;2023-06-10T07:46:46;23.50;99.90
8709;DHT22;4391;48.678;9.280;2023-06-10T07:49:15;23.50;99.90
8709;DHT22;4391;48.678;9.280;2023-06-10T07:51:42;23.60;99.90
8709;DHT22;4391;48.678;9.280;2023-06-10T07:54:09;23.60;99.90
8709;DHT22;4391;48.678;9.280;2023-06-10T07:56:39;23.60;99.90
8709;DHT22;4391;48.678;9.280;2023-06-10T07:59:05;23.80;99.90
8709;DHT22;4391;48.678;9.280;2023-06-10T08:01:32;23.80;99.90
8709;DHT22;4391;48.678;9.280;2023-06-10T08:04:01;23.90;99.90
8709;DHT22;4391;48.678;9.280;2023-06-10T08:06:28;24.10;99.90
8709;DHT22;4391;48.678;9.280;2023-06-10T08:08:55;24.20;99.90
8709;DHT22;4391;48.678;9.280;2023-06-10T08:11:21;24.40;99.90
8709;DHT22;4391;48.678;9.280;2023-06-10T08:13:50;24.50;99.90
8709;DHT22;4391;48.678;9.280;2023-06-10T08:16:18;24.60;99.90
8709;DHT22;4391;48.678;9.280;2023-06-10T08:18:45;24.70;99.90
8709;DHT22;4391;48.678;9.280;2023-06-10T08:21:12;24.90;99.90
8709;DHT22;4391;48.678;9.280;2023-06-10T08:23:39;25.10;99.90
8709;DHT22;4391;48.678;9.280;2023-06-10T08:26:07;25.10;99.90
8709;DHT22;4391;48.678;9.280;2023-06-10T08:28:34;25.20;99.90
8709;DHT22;4391;48.678;9.280;2023-06-10T08:31:02;25.30;99.90
8709;DHT22;4391;48.678;9.280;2023-06-10T08:33:29;25.50;99.90
8709;DHT22;4391;48.678;9.280;2023-06-10T08:35:56;25.50;99.90
8709;DHT22;4391;48.678;9.280;2023-06-10T08:38:23;25.50;99.90
8709;DHT22;4391;48.678;9.280;2023-06-10T08:40:50;25.70;99.90
8709;DHT22;4391;48.678;9.280;2023-06-10T08:43:24;25.80;99.90
8709;DHT22;4391;48.678;9.280;2023-06-10T08:46:00;26.00;99.90
8709;DHT22;4391;48.678;9.280;2023-06-10T08:48:29;26.10;99.90
8709;DHT22;4391;48.678;9.280;2023-06-10T08:50:57;26.20;99.90
8709;DHT22;4391;48.678;9.280;2023-06-10T08:53:26;26.40;99.90
8709;DHT22;4391;48.678;9.280;2023-06-10T08:55:54;26.60;99.90
8709;DHT22;4391;48.678;9.280;2023-06-10T08:58:26;26.90;99.90
8709;DHT22;4391;48.678;9.280;2023-06-10T09:00:54;27.20;99.90
8709;DHT22;4391;48.678;9.280;2023-06-10T09:03:21;27.40;99.90
8709;DHT22;4391;48.678;9.280;2023-06-10T09:05:51;27.50;99.90
8709;DHT22;4391;48.678;9.280;2023-06-10T09:08:18;27.70;99.90
8709;DHT22;4391;48.678;9.280;2023-06-10T09:10:47;27.90;99.90
8709;DHT22;4391;48.678;9.280;2023-06-10T09:13:14;28.10;99.90
8709;DHT22;4391;48.678;9.280;2023-06-10T09:15:44;28.30;99.90
8709;DHT22;4391;48.678;9.280;2023-06-10T09:18:11;28.50;99.90
8709;DHT22;4391;48.678;9.280;2023-06-10T09:20:38;28.60;99.90
8709;DHT22;4391;48.678;9.280;2023-06-10T09:23:07;28.60;99.90
8709;DHT22;4391;48.678;9.280;2023-06-10T09:25:36;28.80;99.90
8709;DHT22;4391;48.678;9.280;2023-06-10T09:28:04;28.90;99.90
8709;DHT22;4391;48.678;9.280;2023-06-10T09:30:33;29.00;99.90
8709;DHT22;4391;48.678;9.280;2023-06-10T09:33:10;29.10;99.90
8709;DHT22;4391;48.678;9.280;2023-06-10T09:35:45;29.50;99.90
8709;DHT22;4391;48.678;9.280;2023-06-10T09:38:14;29.70;99.90
8709;DHT22;4391;48.678;9.280;2023-06-10T09:40:49;29.90;99.90
8709;DHT22;4391;48.678;9.280;2023-06-10T09:43:17;30.40;99.90
8709;DHT22;4391;48.678;9.280;2023-06-10T09:45:43;30.40;99.90
8709;DHT22;4391;48.678;9.280;2023-06-10T09:48:10;30.30;99.90
8709;DHT22;4391;48.678;9.280;2023-06-10T09:50:42;30.30;99.90
8709;DHT22;4391;48.678;9.280;2023-06-10T09:53:09;30.50;99.90
8709;DHT22;4391;48.678;9.280;2023-06-10T09:55:39;31.10;99.90
8709;DHT22;4391;48.678;9.280;2023-06-10T09:58:06;31.60;99.90
8709;DHT22;4391;48.678;9.280;2023-06-10T10:00:33;31.90;99.90
8709;DHT22;4391;48.678;9.280;2023-06-10T10:03:04;31.30;99.90
8709;DHT22;4391;48.678;9.280;2023-06-10T10:05:32;31.80;99.90
8709;DHT22;4391;48.678;9.280;2023-06-10T10:07:59;32.10;99.90
8709;DHT22;4391;48.678;9.280;2023-06-10T10:10:26;32.30;99.90
8709;DHT22;4391;48.678;9.280;2023-06-10T10:12:55;32.60;99.90
8709;DHT22;4391;48.678;9.280;2023-06-10T10:15:25;33.20;99.90
8709;DHT22;4391;48.678;9.280;2023-06-10T10:18:00;33.90;99.90
8709;DHT22;4391;48.678;9.280;2023-06-10T10:20:31;34.00;99.90
8709;DHT22;4391;48.678;9.280;2023-06-10T10:23:02;34.30;99.90
8709;DHT22;4391;48.678;9.280;2023-06-10T10:25:34;34.20;99.90
8709;DHT22;4391;48.678;9.280;2023-06-10T10:28:08;33.70;99.90
8709;DHT22;4391;48.678;9.280;2023-06-10T10:30:39;33.10;99.90
8709;DHT22;4391;48.678;9.280;2023-06-10T10:33:10;32.60;99.90
8709;DHT22;4391;48.678;9.280;2023-06-10T10:35:39;31.90;99.90
8709;DHT22;4391;48.678;9.280;2023-06-10T10:38:06;32.00;99.90
8709;DHT22;4391;48.678;9.280;2023-06-10T10:40:34;31.80;99.90
8709;DHT22;4391;48.678;9.280;2023-06-10T10:43:03;31.60;99.90
8709;DHT22;4391;48.678;9.280;2023-06-10T10:45:30;32.50;99.90
8709;DHT22;4391;48.678;9.280;2023-06-10T10:48:05;32.80;99.90
8709;DHT22;4391;48.678;9.280;2023-06-10T10:50:32;32.80;99.90
8709;DHT22;4391;48.678;9.280;2023-06-10T10:53:04;33.00;99.90
8709;DHT22;4391;48.678;9.280;2023-06-10T10:55:32;32.90;99.90
8709;DHT22;4391;48.678;9.280;2023-06-10T10:58:02;33.30;99.90
8709;DHT22;4391;48.678;9.280;2023-06-10T11:00:32;34.50;99.90
8709;DHT22;4391;48.678;9.280;2023-06-10T11:03:09;35.10;99.90
8709;DHT22;4391;48.678;9.280;2023-06-10T11:05:41;36.00;99.90
8709;DHT22;4391;48.678;9.280;2023-06-10T11:08:10;36.80;99.90
8709;DHT22;4391;48.678;9.280;2023-06-10T11:10:38;37.40;99.90
8709;DHT22;4391;48.678;9.280;2023-06-10T11:13:07;37.90;99.90
8709;DHT22;4391;48.678;9.280;2023-06-10T11:15:38;38.60;99.90
8709;DHT22;4391;48.678;9.280;2023-06-10T11:18:30;38.30;99.90
8709;DHT22;4391;48.678;9.280;2023-06-10T11:21:01;38.60;99.90
8709;DHT22;4391;48.678;9.280;2023-06-10T11:23:40;39.00;99.90
8709;DHT22;4391;48.678;9.280;2023-06-10T11:26:18;39.40;99.90
8709;DHT22;4391;48.678;9.280;2023-06-10T11:29:06;39.00;99.90
8709;DHT22;4391;48.678;9.280;2023-06-10T11:31:41;39.20;99.90
8709;DHT22;4391;48.678;9.280;2023-06-10T11:34:09;39.70;99.90
8709;DHT22;4391;48.678;9.280;2023-06-10T11:36:37;39.70;99.90
8709;DHT22;4391;48.678;9.280;2023-06-10T11:39:08;38.40;99.90
8709;DHT22;4391;48.678;9.280;2023-06-10T11:41:37;38.20;99.90
8709;DHT22;4391;48.678;9.280;2023-06-10T11:44:06;37.80;99.90
8709;DHT22;4391;48.678;9.280;2023-06-10T11:46:34;37.20;99.90
8709;DHT22;4391;48.678;9.280;2023-06-10T11:49:03;37.50;99.90
8709;DHT22;4391;48.678;9.280;2023-06-10T11:51:33;38.10;99.90
8709;DHT22;4391;48.678;9.280;2023-06-10T11:54:00;38.40;99.90
8709;DHT22;4391;48.678;9.280;2023-06-10T11:56:29;38.90;99.90
8709;DHT22;4391;48.678;9.280;2023-06-10T11:58:57;39.80;99.90
8709;DHT22;4391;48.678;9.280;2023-06-10T12:01:27;40.00;99.90
8709;DHT22;4391;48.678;9.280;2023-06-10T12:04:02;40.30;99.90
8709;DHT22;4391;48.678;9.280;2023-06-10T12:06:38;40.40;99.90
8709;DHT22;4391;48.678;9.280;2023-06-10T12:09:06;41.10;99.90
8709;DHT22;4391;48.678;9.280;2023-06-10T12:11:33;41.40;99.90
8709;DHT22;4391;48.678;9.280;2023-06-10T12:14:00;40.30;99.90
8709;DHT22;4391;48.678;9.280;2023-06-10T12:16:29;40.00;99.90
8709;DHT22;4391;48.678;9.280;2023-06-10T12:19:03;40.40;99.90
8709;DHT22;4391;48.678;9.280;2023-06-10T12:21:32;40.60;99.90
8709;DHT22;4391;48.678;9.280;2023-06-10T12:24:04;41.70;99.90
8709;DHT22;4391;48.678;9.280;2023-06-10T12:26:40;42.40;99.90
8709;DHT22;4391;48.678;9.280;2023-06-10T12:29:28;43.00;99.90
8709;DHT22;4391;48.678;9.280;2023-06-10T12:32:00;41.80;99.90
8709;DHT22;4391;48.678;9.280;2023-06-10T12:34:34;41.80;99.90
8709;DHT22;4391;48.678;9.280;2023-06-10T12:37:02;40.70;99.90
8709;DHT22;4391;48.678;9.280;2023-06-10T12:39:30;39.40;99.90
8709;DHT22;4391;48.678;9.280;2023-06-10T12:41:57;38.90;99.90
8709;DHT22;4391;48.678;9.280;2023-06-10T12:44:31;39.50;99.90
8709;DHT22;4391;48.678;9.280;2023-06-10T12:46:59;39.10;99.90
8709;DHT22;4391;48.678;9.280;2023-06-10T12:49:25;37.50;99.90
8709;DHT22;4391;48.678;9.280;2023-06-10T12:51:54;36.10;99.90
8709;DHT22;4391;48.678;9.280;2023-06-10T12:54:21;34.80;99.90
8709;DHT22;4391;48.678;9.280;2023-06-10T12:56:48;35.10;99.90
8709;DHT22;4391;48.678;9.280;2023-06-10T12:59:15;37.00;99.90
8709;DHT22;4391;48.678;9.280;2023-06-10T13:01:42;39.20;99.90
8709;DHT22;4391;48.678;9.280;2023-06-10T13:04:09;40.10;99.90
8709;DHT22;4391;48.678;9.280;2023-06-10T13:06:36;39.50;99.90
8709;DHT22;4391;48.678;9.280;2023-06-10T13:09:05;39.30;99.90
8709;DHT22;4391;48.678;9.280;2023-06-10T13:11:33;37.80;99.90
8709;DHT22;4391;48.678;9.280;2023-06-10T13:14:01;36.50;99.90
8709;DHT22;4391;48.678;9.280;2023-06-10T13:16:28;37.40;99.90
8709;DHT22;4391;48.678;9.280;2023-06-10T13:18:55;38.70;99.90
8709;DHT22;4391;48.678;9.280;2023-06-10T13:21:22;39.20;99.90
8709;DHT22;4391;48.678;9.280;2023-06-10T13:23:51;38.30;99.90
8709;DHT22;4391;48.678;9.280;2023-06-10T13:26:20;36.90;99.90
8709;DHT22;4391;48.678;9.280;2023-06-10T13:28:47;35.90;99.90
8709;DHT22;4391;48.678;9.280;2023-06-10T13:31:14;36.20;99.90
8709;DHT22;4391;48.678;9.280;2023-06-10T13:33:41;38.20;99.90
8709;DHT22;4391;48.678;9.280;2023-06-10T13:36:09;39.50;99.90
8709;DHT22;4391;48.678;9.280;2023-06-10T13:38:37;40.70;99.90
8709;DHT22;4391;48.678;9.280;2023-06-10T13:41:04;42.00;99.90
8709;DHT22;4391;48.678;9.280;2023-06-10T13:43:33;43.00;99.90
8709;DHT22;4391;48.678;9.280;2023-06-10T13:46:00;43.50;99.90
8709;DHT22;4391;48.678;9.280;2023-06-10T13:48:27;43.30;99.90
8709;DHT22;4391;48.678;9.280;2023-06-10T13:50:54;42.90;99.90
8709;DHT22;4391;48.678;9.280;2023-06-10T13:53:20;43.00;99.90
8709;DHT22;4391;48.678;9.280;2023-06-10T13:55:47;43.10;99.90
8709;DHT22;4391;48.678;9.280;2023-06-10T13:58:14;43.30;99.90
8709;DHT22;4391;48.678;9.280;2023-06-10T14:00:42;43.30;99.90
8709;DHT22;4391;48.678;9.280;2023-06-10T14:03:09;43.10;99.90
8709;DHT22;4391;48.678;9.280;2023-06-10T14:05:36;42.10;99.90
8709;DHT22;4391;48.678;9.280;2023-06-10T14:08:03;42.30;99.90
8709;DHT22;4391;48.678;9.280;2023-06-10T14:10:30;42.40;99.90
8709;DHT22;4391;48.678;9.280;2023-06-10T14:12:57;42.60;99.90
8709;DHT22;4391;48.678;9.280;2023-06-10T14:15:24;42.70;99.90
8709;DHT22;4391;48.678;9.280;2023-06-10T14:17:52;41.30;99.90
8709;DHT22;4391;48.678;9.280;2023-06-10T14:20:19;40.00;99.90
8709;DHT22;4391;48.678;9.280;2023-06-10T14:22:46;40.50;99.90
8709;DHT22;4391;48.678;9.280;2023-06-10T14:25:13;40.80;99.90
8709;DHT22;4391;48.678;9.280;2023-06-10T14:27:40;41.10;99.90
8709;DHT22;4391;48.678;9.280;2023-06-10T14:30:07;41.60;99.90
8709;DHT22;4391;48.678;9.280;2023-06-10T14:32:34;41.90;99.90
8709;DHT22;4391;48.678;9.280;2023-06-10T14:35:03;42.20;99.90
8709;DHT22;4391;48.678;9.280;2023-06-10T14:37:30;41.70;99.90
8709;DHT22;4391;48.678;9.280;2023-06-10T14:39:57;40.40;99.90
8709;DHT22;4391;48.678;9.280;2023-06-10T14:42:24;38.40;99.90
8709;DHT22;4391;48.678;9.280;2023-06-10T14:44:51;37.60;99.90
8709;DHT22;4391;48.678;9.280;2023-06-10T14:47:17;37.60;99.90
8709;DHT22;4391;48.678;9.280;2023-06-10T14:49:44;36.60;99.90
8709;DHT22;4391;48.678;9.280;2023-06-10T14:52:12;35.10;99.90
8709;DHT22;4391;48.678;9.280;2023-06-10T14:54:39;33.80;96.60
8709;DHT22;4391;48.678;9.280;2023-06-10T14:57:06;32.90;93.80
8709;DHT22;4391;48.678;9.280;2023-06-10T14:59:33;32.70;94.10
8709;DHT22;4391;48.678;9.280;2023-06-10T15:02:00;32.30;94.30
8709;DHT22;4391;48.678;9.280;2023-06-10T15:04:27;31.50;91.40
8709;DHT22;4391;48.678;9.280;2023-06-10T15:06:54;30.90;90.00
8709;DHT22;4391;48.678;9.280;2023-06-10T15:09:22;30.60;89.90
8709;DHT22;4391;48.678;9.280;2023-06-10T15:11:49;30.40;90.20
8709;DHT22;4391;48.678;9.280;2023-06-10T15:14:16;30.20;90.50
8709;DHT22;4391;48.678;9.280;2023-06-10T15:16:43;29.90;90.40
8709;DHT22;4391;48.678;9.280;2023-06-10T15:19:10;29.70;91.10
8709;DHT22;4391;48.678;9.280;2023-06-10T15:21:36;29.60;91.70
8709;DHT22;4391;48.678;9.280;2023-06-10T15:24:04;29.50;92.50
8709;DHT22;4391;48.678;9.280;2023-06-10T15:26:32;29.30;92.20
8709;DHT22;4391;48.678;9.280;2023-06-10T15:28:59;29.20;92.80
8709;DHT22;4391;48.678;9.280;2023-06-10T15:31:29;29.20;93.50
8709;DHT22;4391;48.678;9.280;2023-06-10T15:33:57;29.20;94.30
8709;DHT22;4391;48.678;9.280;2023-06-10T15:36:24;29.30;96.00
8709;DHT22;4391;48.678;9.280;2023-06-10T15:38:51;29.20;95.30
8709;DHT22;4391;48.678;9.280;2023-06-10T15:41:17;29.20;96.60
8709;DHT22;4391;48.678;9.280;2023-06-10T15:43:46;29.20;96.90
8709;DHT22;4391;48.678;9.280;2023-06-10T15:46:13;29.10;97.20
8709;DHT22;4391;48.678;9.280;2023-06-10T15:48:39;29.10;97.70
8709;DHT22;4391;48.678;9.280;2023-06-10T15:51:06;29.10;98.80
8709;DHT22;4391;48.678;9.280;2023-06-10T15:53:33;29.20;99.80
8709;DHT22;4391;48.678;9.280;2023-06-10T15:56:01;29.20;99.90
8709;DHT22;4391;48.678;9.280;2023-06-10T15:58:28;29.20;99.90
8709;DHT22;4391;48.678;9.280;2023-06-10T16:00:57;29.30;99.90
8709;DHT22;4391;48.678;9.280;2023-06-10T16:03:23;29.30;99.90
8709;DHT22;4391;48.678;9.280;2023-06-10T16:05:50;29.20;99.90
8709;DHT22;4391;48.678;9.280;2023-06-10T16:08:17;29.10;99.90
8709;DHT22;4391;48.678;9.280;2023-06-10T16:10:44;29.10;99.90
8709;DHT22;4391;48.678;9.280;2023-06-10T16:13:11;29.00;99.90
8709;DHT22;4391;48.678;9.280;2023-06-10T16:15:38;28.90;99.90
8709;DHT22;4391;48.678;9.280;2023-06-10T16:18:06;28.80;99.90